Time;durP1;ratioP1;P1;durP2;ratioP2;P2;SDS_P1;SDS_P2;PMS_P1;PMS_P2;Temp;Humidity;BMP_temperature;BMP_pressure;BME280_temperature;BME280_humidity;BME280_pressure;Samples;Min_cycle;Max_cycle;Signal;HPM_P1;HPM_P2
2022/01/03 00:01:25;;;;;;;18.30;7.43;;;9.70;99.90;;;;;;5092619;28;20035;-56
2022/01/03 00:03:51;;;;;;;31.75;8.20;;;9.60;99.90;;;;;;5092050;28;20032;-57
2022/01/03 00:06:19;;;;;;;28.58;8.02;;;9.60;99.90;;;;;;5092579;28;20024;-56
2022/01/03 00:08:46;;;;;;;24.02;7.32;;;9.60;99.90;;;;;;5080289;28;20346;-53
2022/01/03 00:11:13;;;;;;;16.48;6.53;;;9.70;99.90;;;;;;5091630;28;20112;-55
2022/01/03 00:13:44;;;;;;;26.33;8.07;;;9.70;99.90;;;;;;5086887;28;20020;-56
2022/01/03 00:16:10;;;;;;;17.70;6.43;;;9.60;99.90;;;;;;5086498;28;20021;-57
2022/01/03 00:18:37;;;;;;;16.52;5.97;;;9.70;99.90;;;;;;5089854;28;20020;-59
2022/01/03 00:21:07;;;;;;;14.48;5.50;;;9.60;99.90;;;;;;5088998;28;20129;-60
2022/01/03 00:23:36;;;;;;;13.68;5.80;;;9.50;99.90;;;;;;5081497;28;20024;-61
2022/01/03 00:26:03;;;;;;;21.45;6.15;;;9.50;99.90;;;;;;5089385;28;20043;-61
2022/01/03 00:28:37;;;;;;;17.13;5.80;;;9.50;99.90;;;;;;5088357;28;20110;-62
2022/01/03 00:31:04;;;;;;;14.60;5.05;;;9.40;99.90;;;;;;5082664;28;20039;-61
2022/01/03 00:33:31;;;;;;;12.95;3.85;;;9.40;99.90;;;;;;5091251;28;20024;-56
2022/01/03 00:36:03;;;;;;;6.72;3.05;;;9.30;99.90;;;;;;5078059;28;20033;-61
2022/01/03 00:38:31;;;;;;;10.60;2.80;;;9.30;99.90;;;;;;5081770;28;20040;-59
2022/01/03 00:40:59;;;;;;;13.75;3.13;;;9.30;99.90;;;;;;5090349;28;20055;-58
2022/01/03 00:43:29;;;;;;;5.65;2.50;;;9.20;99.90;;;;;;5089393;28;20032;-61
2022/01/03 00:45:56;;;;;;;7.13;2.67;;;9.20;99.90;;;;;;5088772;28;20028;-61
2022/01/03 00:48:22;;;;;;;8.85;2.75;;;9.10;99.90;;;;;;5088178;28;20035;-61
2022/01/03 00:50:49;;;;;;;11.05;3.70;;;9.10;99.90;;;;;;5088780;28;20036;-61
2022/01/03 00:53:15;;;;;;;10.57;2.75;;;9.10;99.90;;;;;;5080348;28;20396;-60
2022/01/03 00:56:03;;;;;;;10.18;2.75;;;9.00;99.90;;;;;;5089868;28;21290;-61
2022/01/03 00:58:35;;;;;;;11.07;2.05;;;9.00;99.90;;;;;;5079674;28;20020;-61
2022/01/03 01:01:05;;;;;;;5.60;1.77;;;8.90;99.90;;;;;;5090513;28;20219;-60
2022/01/03 01:03:36;;;;;;;5.70;1.63;;;8.90;99.90;;;;;;5083595;28;20056;-61
2022/01/03 01:06:06;;;;;;;7.68;1.98;;;8.90;99.90;;;;;;5088237;28;20471;-59
2022/01/03 01:08:37;;;;;;;7.05;1.58;;;8.90;99.90;;;;;;5087938;28;20040;-60
2022/01/03 01:11:08;;;;;;;8.67;1.20;;;8.80;99.90;;;;;;5088889;28;20036;-61
2022/01/03 01:13:36;;;;;;;3.97;1.17;;;8.80;99.90;;;;;;5087859;28;20028;-59
2022/01/03 01:16:07;;;;;;;5.80;1.40;;;8.70;99.90;;;;;;5087871;28;20119;-59
2022/01/03 01:18:36;;;;;;;4.20;1.23;;;8.70;99.90;;;;;;5088438;28;20027;-59
2022/01/03 01:21:04;;;;;;;6.78;1.30;;;8.70;99.90;;;;;;5085910;28;20115;-59
2022/01/03 01:23:30;;;;;;;3.70;1.30;;;8.70;99.90;;;;;;5089949;28;20058;-60
2022/01/03 01:28:40;;;;;;;2.13;1.00;;;8.60;99.90;;;;;;5082529;28;20034;-58
2022/01/03 01:31:07;;;;;;;4.65;1.27;;;8.60;99.90;;;;;;5088897;28;20059;-59
2022/01/03 01:33:35;;;;;;;4.28;0.85;;;8.60;99.90;;;;;;5080298;28;20024;-58
2022/01/03 01:36:02;;;;;;;3.97;0.85;;;8.60;99.90;;;;;;5086619;28;20093;-60
2022/01/03 01:38:34;;;;;;;3.15;1.08;;;8.60;99.90;;;;;;5082759;28;20508;-57
2022/01/03 01:41:03;;;;;;;3.75;1.10;;;8.60;99.90;;;;;;5084822;28;20329;-58
2022/01/03 01:43:39;;;;;;;2.63;1.27;;;8.60;99.90;;;;;;5085415;28;20032;-58
2022/01/03 01:46:08;;;;;;;3.78;1.25;;;8.60;99.90;;;;;;5088030;28;20032;-57
2022/01/03 01:48:36;;;;;;;3.28;1.67;;;8.60;99.90;;;;;;5090478;28;20554;-60
2022/01/03 01:51:03;;;;;;;3.47;1.65;;;8.60;99.90;;;;;;5085422;28;20162;-60
2022/01/03 01:53:29;;;;;;;5.57;1.88;;;8.60;99.90;;;;;;5086444;28;20545;-61
2022/01/03 01:55:57;;;;;;;5.95;1.52;;;8.50;99.90;;;;;;5086200;28;20067;-60
2022/01/03 01:58:28;;;;;;;5.72;1.60;;;8.60;99.90;;;;;;5080289;28;20130;-60
2022/01/03 02:01:06;;;;;;;2.60;1.30;;;8.60;99.90;;;;;;5083451;28;20365;-60
2022/01/03 02:03:42;;;;;;;3.97;1.40;;;8.60;99.90;;;;;;5081539;28;20024;-59
2022/01/03 02:06:43;;;;;;;2.90;1.35;;;8.60;99.90;;;;;;5085247;28;20021;-58
2022/01/03 02:09:17;;;;;;;3.35;1.60;;;8.50;99.90;;;;;;5078464;28;20043;-60
2022/01/03 02:11:57;;;;;;;3.30;1.35;;;8.50;99.90;;;;;;5085125;28;20036;-60
2022/01/03 02:14:26;;;;;;;1.77;1.27;;;8.50;99.90;;;;;;5088240;28;20050;-59
2022/01/03 02:16:53;;;;;;;6.70;2.45;;;8.50;99.90;;;;;;5087639;28;20540;-58
2022/01/03 02:19:22;;;;;;;3.17;0.90;;;8.40;99.90;;;;;;5087067;28;20377;-59
2022/01/03 02:21:48;;;;;;;5.75;1.70;;;8.40;99.90;;;;;;5087152;28;20040;-59
2022/01/03 02:24:13;;;;;;;4.10;1.10;;;8.30;99.90;;;;;;5088911;28;20043;-61
2022/01/03 02:26:40;;;;;;;3.85;1.20;;;8.30;99.90;;;;;;5087516;28;20036;-57
2022/01/03 02:29:06;;;;;;;2.05;1.00;;;8.30;99.90;;;;;;5085306;28;20050;-60
2022/01/03 02:31:33;;;;;;;5.63;1.23;;;8.20;99.90;;;;;;5086486;28;20046;-61
2022/01/03 02:34:01;;;;;;;2.75;1.00;;;8.20;99.90;;;;;;5089241;28;20521;-60
2022/01/03 02:36:29;;;;;;;3.50;1.20;;;8.20;99.90;;;;;;5084311;28;20107;-60
2022/01/03 02:38:55;;;;;;;3.15;1.00;;;8.20;99.90;;;;;;5081482;28;20378;-60
2022/01/03 02:41:20;;;;;;;4.07;1.20;;;8.10;99.90;;;;;;5087551;28;20039;-58
2022/01/03 02:43:48;;;;;;;5.00;1.35;;;8.10;99.90;;;;;;5088856;28;20071;-59
2022/01/03 02:46:14;;;;;;;2.88;1.48;;;8.20;99.90;;;;;;5082541;28;20427;-59
2022/01/03 02:48:40;;;;;;;3.67;1.15;;;8.10;99.90;;;;;;5074416;28;20063;-60
2022/01/03 02:51:06;;;;;;;4.90;1.10;;;8.10;99.90;;;;;;5083897;28;20060;-62
2022/01/03 02:53:31;;;;;;;8.32;1.33;;;8.20;99.90;;;;;;5089556;28;20069;-63
2022/01/03 02:55:57;;;;;;;5.68;1.27;;;8.10;99.90;;;;;;5086235;28;20442;-62
2022/01/03 02:58:22;;;;;;;8.60;1.23;;;8.10;99.90;;;;;;5087215;28;20389;-63
2022/01/03 03:00:50;;;;;;;3.65;1.33;;;8.10;99.90;;;;;;5085453;28;20342;-64
2022/01/03 03:03:19;;;;;;;6.15;1.40;;;8.10;99.90;;;;;;5088286;28;20421;-64
2022/01/03 03:05:45;;;;;;;8.82;1.40;;;8.00;99.90;;;;;;5083068;28;20024;-64
2022/01/03 03:08:11;;;;;;;6.43;1.60;;;8.10;99.90;;;;;;5085259;28;20062;-64
2022/01/03 03:10:37;;;;;;;7.35;1.35;;;8.00;99.90;;;;;;5088789;28;20115;-63
2022/01/03 03:13:03;;;;;;;7.65;1.83;;;8.00;99.90;;;;;;5086052;28;20127;-63
2022/01/03 03:15:29;;;;;;;11.20;1.90;;;8.00;99.90;;;;;;5082724;28;20048;-61
2022/01/03 03:17:55;;;;;;;11.93;2.10;;;8.00;99.90;;;;;;5090726;28;20020;-59
2022/01/03 03:20:23;;;;;;;5.97;1.23;;;7.90;99.90;;;;;;5090688;28;20405;-60
2022/01/03 03:22:50;;;;;;;7.75;1.90;;;7.90;99.90;;;;;;5088362;28;20040;-63
2022/01/03 03:25:34;;;;;;;6.57;1.70;;;7.90;99.90;;;;;;5091805;28;20072;-56
2022/01/03 03:28:08;;;;;;;7.88;2.10;;;7.90;99.90;;;;;;5075872;28;20029;-60
2022/01/03 03:30:38;;;;;;;10.55;2.63;;;7.90;99.90;;;;;;5085792;28;20036;-62
2022/01/03 03:33:17;;;;;;;8.30;1.98;;;7.90;99.90;;;;;;5085192;28;20086;-63
2022/01/03 03:35:44;;;;;;;11.02;2.92;;;7.90;99.90;;;;;;5091953;28;20099;-64
2022/01/03 03:38:11;;;;;;;16.50;3.28;;;8.00;99.90;;;;;;5090994;28;20549;-64
2022/01/03 03:40:37;;;;;;;7.72;3.00;;;7.90;99.90;;;;;;5091010;28;20024;-65
2022/01/03 03:43:04;;;;;;;12.55;2.60;;;8.00;99.90;;;;;;5088006;28;20028;-65
2022/01/03 03:45:30;;;;;;;9.40;2.20;;;8.00;99.90;;;;;;5090640;28;20024;-63
2022/01/03 03:47:57;;;;;;;12.57;2.38;;;8.00;99.90;;;;;;5090500;28;20067;-64
2022/01/03 03:50:24;;;;;;;7.93;2.40;;;8.10;99.90;;;;;;5088256;28;20119;-64
2022/01/03 03:52:50;;;;;;;9.95;2.58;;;8.00;99.90;;;;;;5088381;28;20142;-62
2022/01/03 03:55:16;;;;;;;6.55;2.53;;;8.10;99.90;;;;;;5091327;28;20485;-63
2022/01/03 03:57:41;;;;;;;15.40;2.80;;;8.10;99.90;;;;;;5084488;28;20028;-63
2022/01/03 04:00:11;;;;;;;8.15;2.55;;;8.10;99.90;;;;;;5089432;28;20024;-65
2022/01/03 04:02:36;;;;;;;10.82;3.05;;;8.10;99.90;;;;;;5091271;28;20039;-64
2022/01/03 04:05:03;;;;;;;13.98;3.28;;;8.10;99.90;;;;;;5089361;28;20495;-61
2022/01/03 04:07:29;;;;;;;13.93;2.80;;;8.20;99.90;;;;;;5090466;28;20028;-64
2022/01/03 04:09:55;;;;;;;11.35;2.80;;;8.20;99.90;;;;;;5089790;28;20028;-64
2022/01/03 04:12:20;;;;;;;15.48;3.58;;;8.30;99.90;;;;;;5091620;28;20101;-63
2022/01/03 04:14:46;;;;;;;15.05;2.92;;;8.30;99.90;;;;;;5091455;28;20431;-61
2022/01/03 04:17:12;;;;;;;15.73;3.10;;;8.30;99.90;;;;;;5091120;28;20035;-63
2022/01/03 04:19:38;;;;;;;20.05;3.05;;;8.30;99.90;;;;;;5089090;28;20047;-60
2022/01/03 04:22:04;;;;;;;15.55;3.42;;;8.30;99.90;;;;;;5083466;28;20036;-62
2022/01/03 04:24:30;;;;;;;11.55;4.32;;;8.30;99.90;;;;;;5085729;28;20030;-61
2022/01/03 04:26:56;;;;;;;15.75;2.85;;;8.30;99.90;;;;;;5092709;28;20043;-62
2022/01/03 04:29:21;;;;;;;11.85;2.67;;;8.30;99.90;;;;;;5089797;28;20050;-62
2022/01/03 04:31:47;;;;;;;12.30;3.00;;;8.30;99.90;;;;;;5088823;28;20111;-64
2022/01/03 04:34:13;;;;;;;13.55;2.60;;;8.40;99.90;;;;;;5091618;28;20497;-63
2022/01/03 04:36:39;;;;;;;24.63;3.33;;;8.40;99.90;;;;;;5090468;28;20437;-62
2022/01/03 04:39:05;;;;;;;15.50;3.05;;;8.40;99.90;;;;;;5089710;28;20100;-59
2022/01/03 04:41:31;;;;;;;11.88;3.58;;;8.40;99.90;;;;;;5090139;28;20028;-62
2022/01/03 04:43:57;;;;;;;11.80;2.70;;;8.30;99.90;;;;;;5090368;28;20035;-62
2022/01/03 04:46:22;;;;;;;18.60;3.85;;;8.40;99.90;;;;;;5091543;28;20516;-64
2022/01/03 04:48:48;;;;;;;18.02;3.42;;;8.40;99.90;;;;;;5082176;28;20122;-63
2022/01/03 04:51:14;;;;;;;13.50;3.75;;;8.40;99.90;;;;;;5087638;28;20036;-62
2022/01/03 04:53:40;;;;;;;19.88;3.45;;;8.40;99.90;;;;;;5088826;28;20027;-64
2022/01/03 04:56:08;;;;;;;20.27;3.47;;;8.40;99.90;;;;;;5087726;28;20054;-62
2022/01/03 04:58:34;;;;;;;16.25;3.10;;;8.40;99.90;;;;;;5091896;28;20529;-61
2022/01/03 05:01:00;;;;;;;17.25;3.53;;;8.40;99.90;;;;;;5084073;28;20132;-62
2022/01/03 05:03:25;;;;;;;20.02;4.13;;;8.40;99.90;;;;;;5088723;28;20024;-63
2022/01/03 05:05:51;;;;;;;15.27;3.88;;;8.40;99.90;;;;;;5089373;28;20401;-64
2022/01/03 05:08:17;;;;;;;18.73;3.83;;;8.40;99.90;;;;;;5084939;28;20056;-64
2022/01/03 05:10:42;;;;;;;25.00;4.35;;;8.40;99.90;;;;;;5088642;28;20028;-64
2022/01/03 05:13:08;;;;;;;21.77;3.75;;;8.40;99.90;;;;;;5082775;28;20035;-60
2022/01/03 05:15:33;;;;;;;20.80;3.97;;;8.40;99.90;;;;;;5091008;28;20024;-64
2022/01/03 05:17:59;;;;;;;18.33;3.50;;;8.40;99.90;;;;;;5089139;28;20032;-63
2022/01/03 05:20:25;;;;;;;22.98;3.58;;;8.40;99.90;;;;;;5085606;28;20034;-60
2022/01/03 05:22:51;;;;;;;22.27;3.72;;;8.40;99.90;;;;;;5087472;28;20489;-64
2022/01/03 05:25:16;;;;;;;24.02;4.82;;;8.40;99.90;;;;;;5080650;28;20115;-61
2022/01/03 05:27:42;;;;;;;20.23;3.65;;;8.40;99.90;;;;;;5088267;28;20472;-58
2022/01/03 05:30:08;;;;;;;28.58;3.63;;;8.40;99.90;;;;;;5086876;28;20405;-61
2022/01/03 05:32:34;;;;;;;22.60;3.90;;;8.40;99.90;;;;;;5083779;28;20047;-61
2022/01/03 05:35:00;;;;;;;22.02;3.90;;;8.40;99.90;;;;;;5080785;28;20060;-63
2022/01/03 05:37:25;;;;;;;22.40;4.25;;;8.40;99.90;;;;;;5087617;28;20043;-62
2022/01/03 05:39:51;;;;;;;21.90;3.30;;;8.40;99.90;;;;;;5085807;28;20033;-61
2022/01/03 05:42:17;;;;;;;27.58;4.03;;;8.40;99.90;;;;;;5090007;28;20442;-62
2022/01/03 05:44:42;;;;;;;31.40;3.95;;;8.40;99.90;;;;;;5087844;28;20050;-62
2022/01/03 05:47:08;;;;;;;23.80;3.47;;;8.40;99.90;;;;;;5081069;28;20110;-63
2022/01/03 05:49:34;;;;;;;26.98;4.60;;;8.40;99.90;;;;;;5085186;28;20347;-63
2022/01/03 05:51:59;;;;;;;25.38;3.42;;;8.50;99.90;;;;;;5085577;28;20024;-61
2022/01/03 05:54:25;;;;;;;22.00;3.90;;;8.50;99.90;;;;;;5079738;28;20299;-59
2022/01/03 05:56:51;;;;;;;25.70;3.75;;;8.50;99.90;;;;;;5085261;28;20032;-61
2022/01/03 05:59:16;;;;;;;28.48;5.05;;;8.50;99.90;;;;;;5087742;28;20074;-63
2022/01/03 06:01:42;;;;;;;26.95;4.38;;;8.50;99.90;;;;;;5088946;28;20516;-62
2022/01/03 06:04:35;;;;;;;28.60;4.40;;;8.50;99.90;;;;;;5085556;28;20174;-63
2022/01/03 06:07:05;;;;;;;22.92;3.72;;;8.50;99.90;;;;;;5074569;28;20403;-62
2022/01/03 06:09:31;;;;;;;20.40;4.00;;;8.50;99.90;;;;;;5081206;28;20060;-60
2022/01/03 06:11:58;;;;;;;23.30;4.07;;;8.50;99.90;;;;;;5087695;28;20526;-62
2022/01/03 06:14:24;;;;;;;15.88;3.33;;;8.50;99.90;;;;;;5088812;28;20539;-64
2022/01/03 06:16:50;;;;;;;23.77;4.18;;;8.50;99.90;;;;;;5088570;28;20388;-64
2022/01/03 06:19:16;;;;;;;21.38;3.80;;;8.50;99.90;;;;;;5080474;28;20052;-61
2022/01/03 06:21:42;;;;;;;24.13;4.25;;;8.40;99.90;;;;;;5086751;28;20066;-62
2022/01/03 06:24:09;;;;;;;27.38;3.95;;;8.50;99.90;;;;;;5087094;28;20503;-63
2022/01/03 06:26:36;;;;;;;31.08;4.57;;;8.50;99.90;;;;;;5089361;28;20118;-63
2022/01/03 06:29:03;;;;;;;33.58;4.78;;;8.50;99.90;;;;;;5087356;28;20553;-62
2022/01/03 06:31:28;;;;;;;29.13;4.90;;;8.50;99.90;;;;;;5088115;28;20062;-63
2022/01/03 06:33:54;;;;;;;28.67;4.30;;;8.50;99.90;;;;;;5088729;28;20369;-62
2022/01/03 06:36:19;;;;;;;29.05;4.30;;;8.50;99.90;;;;;;5102242;28;20095;-63
2022/01/03 06:38:45;;;;;;;26.08;4.50;;;8.50;99.90;;;;;;5073878;28;20024;-62
2022/01/03 06:41:12;;;;;;;34.40;5.13;;;8.50;99.90;;;;;;5085990;28;20028;-58
2022/01/03 06:43:38;;;;;;;29.25;4.22;;;8.50;99.90;;;;;;5083812;28;20508;-60
2022/01/03 06:46:03;;;;;;;29.20;3.90;;;8.50;99.90;;;;;;5081496;28;20033;-61
2022/01/03 06:48:29;;;;;;;21.10;3.60;;;8.50;99.90;;;;;;5079178;28;20679;-61
2022/01/03 06:50:55;;;;;;;27.05;4.05;;;8.50;99.90;;;;;;5081512;28;20087;-61
2022/01/03 06:53:20;;;;;;;30.90;4.15;;;8.60;99.90;;;;;;5095995;28;20028;-59
2022/01/03 06:55:46;;;;;;;30.00;4.50;;;8.60;99.90;;;;;;5088712;28;20031;-62
2022/01/03 06:58:12;;;;;;;27.27;3.50;;;8.60;99.90;;;;;;5092458;28;20039;-60
2022/01/03 07:00:38;;;;;;;27.42;4.47;;;8.60;99.90;;;;;;5081295;28;20056;-61
2022/01/03 07:03:03;;;;;;;27.55;4.60;;;8.60;99.90;;;;;;5086913;28;20106;-61
2022/01/03 07:05:29;;;;;;;38.55;4.82;;;8.60;99.90;;;;;;5086234;28;20023;-56
2022/01/03 07:07:55;;;;;;;24.27;4.15;;;8.70;99.90;;;;;;5089369;28;20107;-57
2022/01/03 07:10:20;;;;;;;32.00;4.55;;;8.60;99.90;;;;;;5075374;28;20032;-59
2022/01/03 07:12:51;;;;;;;33.88;4.65;;;8.60;99.90;;;;;;5081958;28;20041;-57
2022/01/03 07:20:47;;;;;;;31.95;5.55;;;8.60;99.90;;;;;;5086114;28;20070;-59
2022/01/03 07:23:14;;;;;;;33.20;5.32;;;8.60;99.90;;;;;;5087886;28;20039;-60
2022/01/03 07:25:40;;;;;;;35.05;4.93;;;8.60;99.90;;;;;;5081419;28;20031;-60
2022/01/03 07:28:06;;;;;;;35.90;4.45;;;8.60;99.90;;;;;;5088126;28;20040;-61
2022/01/03 07:30:32;;;;;;;26.00;4.32;;;8.60;99.90;;;;;;5088966;28;20041;-62
2022/01/03 07:32:58;;;;;;;30.83;3.90;;;8.60;99.90;;;;;;5070278;28;20483;-58
2022/01/03 07:35:24;;;;;;;26.38;4.75;;;8.50;99.90;;;;;;5089120;28;20504;-59
2022/01/03 07:37:52;;;;;;;28.58;4.15;;;8.50;99.90;;;;;;5087545;28;20040;-58
2022/01/03 07:40:17;;;;;;;34.40;5.30;;;8.60;99.90;;;;;;5087016;28;20028;-59
2022/01/03 07:42:43;;;;;;;33.03;4.40;;;8.60;99.90;;;;;;5087456;28;20671;-59
2022/01/03 07:45:10;;;;;;;35.83;4.97;;;8.60;99.90;;;;;;5089023;28;20449;-59
2022/01/03 07:47:36;;;;;;;35.95;4.95;;;8.50;99.90;;;;;;5088066;28;20475;-59
2022/01/03 07:50:04;;;;;;;29.08;4.65;;;8.60;99.90;;;;;;5088037;28;20040;-53
2022/01/03 07:52:29;;;;;;;34.03;4.40;;;8.60;99.90;;;;;;5086251;28;20032;-58
2022/01/03 07:54:55;;;;;;;32.65;4.50;;;8.60;99.90;;;;;;5088839;28;20361;-55
2022/01/03 07:57:21;;;;;;;30.67;5.55;;;8.60;99.90;;;;;;5087682;28;20085;-63
2022/01/03 07:59:47;;;;;;;29.58;4.65;;;8.60;99.90;;;;;;5083470;28;20028;-62
2022/01/03 08:02:13;;;;;;;40.30;5.90;;;8.60;99.90;;;;;;5089902;28;20050;-63
2022/01/03 08:04:39;;;;;;;31.42;4.78;;;8.50;99.90;;;;;;5088045;28;20034;-63
2022/01/03 08:07:05;;;;;;;32.22;5.47;;;8.50;99.90;;;;;;5090665;28;20040;-61
2022/01/03 08:09:30;;;;;;;33.03;4.78;;;8.50;99.90;;;;;;5085173;28;20028;-63
2022/01/03 08:11:56;;;;;;;40.95;6.40;;;8.50;99.90;;;;;;5089907;28;20039;-62
2022/01/03 08:14:22;;;;;;;37.58;5.85;;;8.40;99.90;;;;;;5091638;28;20028;-63
2022/01/03 08:16:48;;;;;;;25.75;5.20;;;8.40;99.90;;;;;;5071974;28;20073;-63
2022/01/03 08:19:13;;;;;;;45.35;5.65;;;8.50;99.90;;;;;;5088844;28;20108;-62
2022/01/03 08:21:39;;;;;;;34.15;5.28;;;8.50;99.90;;;;;;5087740;28;20050;-60
2022/01/03 08:24:05;;;;;;;28.10;4.88;;;8.50;99.90;;;;;;5087017;28;20069;-60
2022/01/03 08:26:33;;;;;;;27.13;4.82;;;8.50;99.90;;;;;;5078291;28;20536;-60
2022/01/03 08:28:59;;;;;;;37.35;5.25;;;8.50;99.90;;;;;;5084198;28;20040;-59
2022/01/03 08:31:25;;;;;;;27.98;4.05;;;8.50;99.90;;;;;;5090785;28;20031;-58
2022/01/03 08:33:51;;;;;;;39.90;5.53;;;8.50;99.90;;;;;;5073013;28;20035;-59
2022/01/03 08:36:17;;;;;;;36.60;5.47;;;8.50;99.90;;;;;;5084615;28;20024;-58
2022/01/03 08:38:42;;;;;;;28.10;4.53;;;8.50;99.90;;;;;;5076773;28;20038;-60
2022/01/03 08:41:08;;;;;;;25.50;4.28;;;8.50;99.90;;;;;;5083481;28;20028;-61
2022/01/03 08:43:34;;;;;;;32.40;5.45;;;8.50;99.90;;;;;;5091941;28;20024;-60
2022/01/03 08:45:59;;;;;;;35.95;6.15;;;8.50;99.90;;;;;;5091312;28;20055;-63
2022/01/03 08:48:25;;;;;;;31.70;5.57;;;8.50;99.90;;;;;;5092906;28;20044;-60
2022/01/03 08:50:50;;;;;;;31.08;5.05;;;8.50;99.90;;;;;;5085153;28;20107;-61
2022/01/03 08:53:17;;;;;;;33.08;4.78;;;8.50;99.90;;;;;;5084058;28;20039;-61
2022/01/03 08:55:42;;;;;;;36.33;5.13;;;8.50;99.90;;;;;;5081100;28;20834;-60
2022/01/03 08:58:08;;;;;;;36.40;5.18;;;8.60;99.90;;;;;;5091468;28;20068;-60
2022/01/03 09:00:34;;;;;;;37.30;6.88;;;8.60;99.90;;;;;;5091087;28;20028;-57
2022/01/03 09:03:00;;;;;;;35.15;4.78;;;8.60;99.90;;;;;;5088642;28;20043;-62
2022/01/03 09:05:25;;;;;;;29.60;5.28;;;8.60;99.90;;;;;;5090699;28;20028;-60
2022/01/03 09:07:51;;;;;;;29.30;4.93;;;8.60;99.90;;;;;;5090171;28;20032;-60
2022/01/03 09:10:17;;;;;;;46.10;7.25;;;8.70;99.90;;;;;;5089290;28;20024;-57
2022/01/03 09:12:43;;;;;;;37.17;5.60;;;8.70;99.90;;;;;;5091143;28;20413;-59
2022/01/03 09:15:09;;;;;;;29.45;5.30;;;8.70;99.90;;;;;;5091317;28;20053;-61
2022/01/03 09:17:35;;;;;;;36.75;5.75;;;8.80;99.90;;;;;;5091550;28;20036;-62
2022/01/03 09:20:01;;;;;;;33.88;5.45;;;8.70;99.90;;;;;;5090668;28;20113;-60
2022/01/03 09:22:33;;;;;;;37.63;5.90;;;8.70;99.90;;;;;;5090005;28;20040;-64
2022/01/03 09:30:13;;;;;;;35.83;5.32;;;8.70;99.90;;;;;;5090645;28;20459;-62
2022/01/03 09:32:39;;;;;;;27.00;5.07;;;8.70;99.90;;;;;;5090165;28;20508;-63
2022/01/03 09:35:07;;;;;;;33.88;4.55;;;8.70;99.90;;;;;;5090515;28;20028;-65
2022/01/03 09:37:34;;;;;;;34.60;5.53;;;8.70;99.90;;;;;;5087547;28;20020;-64
2022/01/03 09:40:01;;;;;;;25.25;5.78;;;8.70;99.90;;;;;;5088265;28;20031;-63
2022/01/03 09:42:29;;;;;;;34.38;5.13;;;8.70;99.90;;;;;;5090897;28;20032;-60
2022/01/03 09:44:56;;;;;;;37.20;5.28;;;8.70;99.90;;;;;;5090426;28;20144;-63
2022/01/03 09:47:22;;;;;;;26.23;5.53;;;8.70;99.90;;;;;;5090732;28;20032;-61
2022/01/03 09:49:48;;;;;;;29.42;4.90;;;8.70;99.90;;;;;;5089780;28;20035;-62
2022/01/03 09:52:16;;;;;;;34.85;5.20;;;8.70;99.90;;;;;;5090471;28;20442;-61
2022/01/03 09:54:42;;;;;;;34.15;5.70;;;8.70;99.90;;;;;;5090063;28;20025;-61
2022/01/03 09:57:08;;;;;;;34.25;5.05;;;8.60;99.90;;;;;;5090661;28;20089;-61
2022/01/03 09:59:36;;;;;;;34.55;5.10;;;8.60;99.90;;;;;;5089801;28;20454;-61
2022/01/03 10:02:05;;;;;;;31.58;5.43;;;8.60;99.90;;;;;;5089942;28;20035;-63
2022/01/03 10:04:32;;;;;;;33.25;5.20;;;8.60;99.90;;;;;;5090509;28;20492;-62
2022/01/03 10:06:58;;;;;;;32.70;5.03;;;8.60;99.90;;;;;;5089810;28;20046;-64
2022/01/03 10:09:24;;;;;;;32.97;5.97;;;8.60;99.90;;;;;;5088822;28;20458;-60
2022/01/03 10:11:50;;;;;;;38.25;7.35;;;8.60;99.90;;;;;;5089515;28;20036;-62
2022/01/03 10:14:16;;;;;;;39.45;7.45;;;8.60;99.90;;;;;;5089867;28;20396;-59
2022/01/03 10:16:44;;;;;;;31.95;5.43;;;8.70;99.90;;;;;;5089461;28;20115;-64
2022/01/03 10:19:10;;;;;;;28.00;6.30;;;8.70;99.90;;;;;;5090301;28;20424;-60
2022/01/03 10:21:48;;;;;;;37.45;5.80;;;8.80;99.90;;;;;;5088975;28;20482;-60
2022/01/03 10:24:16;;;;;;;41.33;5.47;;;8.80;99.90;;;;;;5090431;28;20111;-62
2022/01/03 10:26:50;;;;;;;34.83;5.88;;;8.80;99.90;;;;;;5089200;28;20032;-59
2022/01/03 10:29:20;;;;;;;31.10;6.40;;;8.90;99.90;;;;;;5088379;28;20127;-59
2022/01/03 10:31:48;;;;;;;32.55;5.82;;;8.90;99.90;;;;;;5089028;28;20101;-62
2022/01/03 10:34:16;;;;;;;35.42;5.43;;;8.90;99.90;;;;;;5088288;28;20024;-59
2022/01/03 10:36:44;;;;;;;31.90;5.35;;;8.90;99.90;;;;;;5089189;28;20028;-61
2022/01/03 10:39:28;;;;;;;33.33;5.07;;;8.80;99.90;;;;;;5089580;28;20052;-60
2022/01/03 10:42:18;;;;;;;32.47;4.50;;;8.80;99.90;;;;;;5089060;28;20061;-59
2022/01/03 10:44:44;;;;;;;27.80;4.35;;;8.80;99.90;;;;;;5085690;28;20064;-60
2022/01/03 10:47:16;;;;;;;31.52;4.30;;;8.80;99.90;;;;;;5088233;28;20311;-61
2022/01/03 10:49:44;;;;;;;31.02;5.22;;;8.90;99.90;;;;;;5088508;28;20382;-61
2022/01/03 10:52:12;;;;;;;24.95;4.70;;;9.00;99.90;;;;;;5089339;28;20131;-59
2022/01/03 10:54:39;;;;;;;37.13;5.90;;;8.90;99.90;;;;;;5089365;28;20493;-60
2022/01/03 10:57:05;;;;;;;29.33;4.82;;;9.10;99.90;;;;;;5089296;28;20020;-57
2022/01/03 10:59:34;;;;;;;35.92;4.93;;;9.10;99.90;;;;;;5088885;28;20110;-59
2022/01/03 11:02:03;;;;;;;25.08;4.60;;;9.10;99.90;;;;;;5088674;28;20042;-60
2022/01/03 11:04:46;;;;;;;34.92;5.55;;;9.10;99.90;;;;;;5088006;28;20139;-58
2022/01/03 11:13:12;;;;;;;23.90;4.10;;;9.30;99.90;;;;;;5089194;28;20057;-59
2022/01/03 11:15:39;;;;;;;27.45;4.20;;;9.40;99.90;;;;;;5088540;28;20499;-58
2022/01/03 11:18:15;;;;;;;29.30;5.63;;;9.50;99.90;;;;;;5088992;28;20020;-58
2022/01/03 11:20:42;;;;;;;34.10;5.95;;;9.60;99.90;;;;;;5088407;28;20020;-60
2022/01/03 11:23:08;;;;;;;27.40;4.80;;;9.70;99.90;;;;;;5089020;28;20111;-60
2022/01/03 11:25:35;;;;;;;33.75;5.13;;;9.90;99.90;;;;;;5087108;28;20425;-59
2022/01/03 11:28:02;;;;;;;40.30;5.57;;;9.90;99.90;;;;;;5085230;28;20131;-60
2022/01/03 11:30:29;;;;;;;36.08;5.32;;;9.80;99.90;;;;;;5086346;28;20440;-60
2022/01/03 11:32:56;;;;;;;28.27;4.38;;;9.70;99.90;;;;;;5085550;28;20128;-60
2022/01/03 11:35:22;;;;;;;30.33;5.25;;;9.60;99.90;;;;;;5091653;28;20024;-59
2022/01/03 11:37:50;;;;;;;31.90;5.43;;;9.60;99.90;;;;;;5081324;28;20047;-62
2022/01/03 11:40:17;;;;;;;34.15;5.10;;;9.70;99.90;;;;;;5090544;28;20078;-61
2022/01/03 11:42:43;;;;;;;37.72;6.07;;;9.80;99.90;;;;;;5084304;28;20079;-62
2022/01/03 11:45:09;;;;;;;39.47;6.03;;;9.70;99.90;;;;;;5087009;28;20024;-61
2022/01/03 11:47:36;;;;;;;29.02;6.45;;;9.80;99.90;;;;;;5084931;28;20021;-62
2022/01/03 11:50:03;;;;;;;37.92;5.97;;;9.90;99.90;;;;;;5083483;28;20055;-63
2022/01/03 11:52:29;;;;;;;31.40;5.38;;;10.00;99.90;;;;;;5089424;28;20036;-63
2022/01/03 11:54:56;;;;;;;30.75;5.20;;;10.00;99.90;;;;;;5084498;28;20032;-58
2022/01/03 11:57:42;;;;;;;29.88;5.07;;;10.00;99.90;;;;;;5084453;28;20028;-62
2022/01/03 12:05:54;;;;;;;32.55;6.10;;;9.80;99.90;;;;;;5088199;28;20097;-60
2022/01/03 12:08:25;;;;;;;28.10;5.05;;;9.80;99.90;;;;;;5088868;28;20044;-49
2022/01/03 12:10:52;;;;;;;32.08;5.13;;;9.80;99.90;;;;;;5092537;28;20044;-60
2022/01/03 12:13:20;;;;;;;28.75;4.85;;;9.80;99.90;;;;;;5085098;28;20381;-58
2022/01/03 12:15:46;;;;;;;32.15;4.75;;;9.90;99.90;;;;;;5092053;28;20024;-54
2022/01/03 12:18:32;;;;;;;43.92;6.50;;;10.00;99.90;;;;;;5089704;28;20035;-56
2022/01/03 12:20:58;;;;;;;36.85;6.13;;;10.10;99.90;;;;;;5089800;28;20489;-56
2022/01/03 12:23:45;;;;;;;30.38;5.50;;;10.20;99.90;;;;;;5084789;28;20063;-56
2022/01/03 12:26:13;;;;;;;28.45;4.43;;;10.30;99.90;;;;;;5086874;28;20119;-56
2022/01/03 12:29:08;;;;;;;41.10;6.32;;;10.40;99.90;;;;;;5092539;28;20020;-58
2022/01/03 12:32:02;;;;;;;36.13;6.53;;;10.40;99.90;;;;;;5090407;28;20257;-54
2022/01/03 12:34:28;;;;;;;32.83;6.28;;;10.40;99.90;;;;;;5092173;28;20031;-53
2022/01/03 12:37:14;;;;;;;31.90;6.07;;;10.40;99.90;;;;;;5091495;28;20036;-52
2022/01/03 12:40:01;;;;;;;36.90;7.30;;;10.30;99.90;;;;;;5091760;28;20393;-56
2022/01/03 12:42:48;;;;;;;39.95;6.45;;;10.30;99.90;;;;;;5090964;28;20059;-54
2022/01/03 12:45:29;;;;;;;37.80;6.65;;;10.30;99.90;;;;;;5091756;28;20040;-56
2022/01/03 12:50:52;;;;;;;46.97;7.30;;;10.30;99.90;;;;;;5091049;28;20051;-56
2022/01/03 12:53:23;;;;;;;34.78;5.65;;;10.30;99.90;;;;;;5091671;28;20043;-55
2022/01/03 12:55:53;;;;;;;29.50;4.65;;;10.30;99.90;;;;;;5091248;28;20024;-56
2022/01/03 12:58:19;;;;;;;38.00;5.43;;;10.30;99.90;;;;;;5092212;28;20071;-55
2022/01/03 13:00:49;;;;;;;36.00;5.18;;;10.40;99.90;;;;;;5089285;28;20485;-56
2022/01/03 13:03:39;;;;;;;39.97;5.45;;;10.40;99.90;;;;;;5091499;28;20020;-56
2022/01/03 13:06:17;;;;;;;36.92;5.63;;;10.50;99.90;;;;;;5091287;28;20027;-52
2022/01/03 13:08:56;;;;;;;29.45;5.53;;;10.50;99.90;;;;;;5091068;28;20024;-56
2022/01/03 13:11:32;;;;;;;40.60;5.60;;;10.40;99.90;;;;;;5090787;28;20508;-53
2022/01/03 13:14:06;;;;;;;32.42;4.97;;;10.30;99.90;;;;;;5090985;28;20031;-55
2022/01/03 13:16:34;;;;;;;31.08;5.15;;;10.10;99.90;;;;;;5091361;28;20021;-55
2022/01/03 13:19:22;;;;;;;41.15;5.07;;;10.00;99.90;;;;;;5090884;28;20460;-54
2022/01/03 13:21:51;;;;;;;44.97;5.53;;;9.90;99.90;;;;;;5090350;28;20507;-55